Details From EBAW - Antwerpen Deurne
To YMTG - Mount Gambier Airport
Flight Number -
Tags Decoded
Created
Modified
Stats Distance 9,220 nm / 17,076 km
Max Altitude 0 ft / 0 m
Waypoints 7
Social Downloads 0
Likes 0
Share VATSIM

Download

Looking for another format? Having issues loading an existing format? Contact us
Advertisement - Login to hide

Notes

Decoded

Route

NIK KOVIN CLM BRY ETREK MTL MTG

ID Type Via Altitude Latitude Longitude Leg Dist Tot Dist Heading (true) Name
O NIK NDB - 0 ft / 0 m 51.16250˚ 4.18917˚ - 0 nm - NICKY NDB
KOVIN FIX - 0 ft / 0 m 49.48583˚ 3.10639˚ 108 nm 108 nm 203° / 202° -
CLM VOR - 0 ft / 0 m 48.84464˚ 3.01386˚ 38 nm 147 nm 185° / 185° COULOMMIERS Voisins VOR-DME
BRY VOR - 0 ft / 0 m 48.40700˚ 3.29478˚ 28 nm 176 nm 157° / 157° BRAY SUR SEINE VOR-DME
ETREK FIX - 0 ft / 0 m 45.18778˚ 4.63861˚ 201 nm 377 nm 164° / 165° -
MTL VOR - 0 ft / 0 m 44.55494˚ 4.77986˚ 38 nm 415 nm 171° / 171° MONTELIMAR ANCONE VOR-DME
O MTG VOR - 0 ft / 0 m -37.75141˚ 140.78527˚ 8804 nm 9220 nm 94° / 116° MOUNT GAMBIER VOR

Altitude Profile

Advertisement - Login to hide

Weather


0- 5 10 15 20 25 30 35+ Temperature / ° C

Clouds and Precipitation
Forecast for 2017-12-14 06:00 UTC. Updated an hour ago

Ground ~20,000 ft ~40,000 ft Winds

EBAW

Details ICAO EBAW (ANR)
Name Antwerp Deurne
Region Belgium
Timezone Europe/Brussels (UTC+1.0)
Stats Elevation 39 ft / 12 m (AMSL)
Location 51.190654° 4.463776°
Runways 2
Magnetic Variation 1.098° E

METAR

EBAW 140620Z 24014KT 9999 -SHRA FEW017 BKN048 05/01 Q0994 TEMPO 23020G35KT 4500 SHRA

Decode

TAF

Not found

Departure Runways

ID Width Length Bearing (true) Bearing (mag) Surface Threshold Offset Overrun Length
11 148 ft / 45 m 4,931 ft / 1,503 m 109.83° 108.73° Asphalt 472 ft / 144 m 0 ft / 0 m
11L 164 ft / 50 m 3,317 ft / 1,011 m 109.83° 108.73° Grass 0 ft / 0 m 0 ft / 0 m
29 148 ft / 45 m 4,931 ft / 1,503 m 289.85° 288.75° Asphalt 400 ft / 122 m 0 ft / 0 m
29R 164 ft / 50 m 3,317 ft / 1,011 m 289.85° 288.75° Grass 0 ft / 0 m 0 ft / 0 m

YMTG

Details ICAO YMTG (MGB)
Name Mount Gambier
Region Australia
Timezone Australia/Adelaide (UTC+10.5)
Stats Elevation 212 ft / 65 m (AMSL)
Location -37.747502° 140.785588°
Runways 3
Magnetic Variation 9.649° E

METAR

YMTG 140600Z AUTO 26013KT 9999 // SCT041 SCT049 20/09 Q1011

Decode

TAF

Not found

Destination Runways

ID Width Length Bearing (true) Bearing (mag) Surface Threshold Offset Overrun Length
06 98 ft / 30 m 3,021 ft / 921 m 64.00° 54.35° Asphalt 0 ft / 0 m 0 ft / 0 m
11 98 ft / 30 m 3,018 ft / 920 m 121.11° 111.46° Asphalt 0 ft / 0 m 0 ft / 0 m
18 98 ft / 30 m 5,008 ft / 1,526 m 185.80° 176.15° Asphalt 0 ft / 0 m 0 ft / 0 m
24 98 ft / 30 m 3,021 ft / 921 m 243.99° 234.34° Asphalt 249 ft / 76 m 0 ft / 0 m
29 98 ft / 30 m 3,018 ft / 920 m 301.10° 291.45° Asphalt 0 ft / 0 m 0 ft / 0 m
36 98 ft / 30 m 5,008 ft / 1,526 m 5.80° 356.15° Asphalt 0 ft / 0 m 0 ft / 0 m